createdAt,value
2022-10-05T00:05:21.395Z,4.33
2022-10-05T00:11:23.399Z,6.43
2022-10-05T00:17:27.730Z,5.40
2022-10-05T00:29:53.378Z,3.70
2022-10-05T00:35:56.176Z,5.77
2022-10-05T00:48:41.181Z,3.67
2022-10-05T00:55:06.667Z,2.60
2022-10-05T01:01:30.605Z,4.63
2022-10-05T01:08:11.610Z,3.00
2022-10-05T01:28:15.643Z,4.20
2022-10-05T01:41:07.080Z,3.80
2022-10-05T01:47:44.313Z,4.30
2022-10-05T01:54:04.837Z,2.10
2022-10-05T02:00:13.603Z,2.13
2022-10-05T02:06:25.954Z,4.10
2022-10-05T02:12:31.027Z,2.97
2022-10-05T02:19:04.626Z,4.83
2022-10-05T02:25:30.063Z,4.23
2022-10-05T02:38:30.764Z,2.47
2022-10-05T02:44:55.358Z,2.10
2022-10-05T02:51:21.455Z,1.87
2022-10-05T02:57:40.119Z,9.13
2022-10-05T03:03:47.692Z,6.13
2022-10-05T03:10:05.911Z,5.10
2022-10-05T03:16:26.139Z,5.23
2022-10-05T03:22:47.284Z,2.53
2022-10-05T03:29:44.877Z,2.70
2022-10-05T03:36:00.479Z,2.87
2022-10-05T03:49:01.807Z,3.67
2022-10-05T03:55:27.732Z,1.23
2022-10-05T04:29:30.736Z,4.10
2022-10-05T04:42:31.358Z,4.40
2022-10-05T04:55:09.120Z,4.60
2022-10-05T05:07:52.954Z,6.87
2022-10-05T07:11:57.366Z,5.53
2022-10-05T07:18:41.914Z,8.33
2022-10-05T07:24:46.806Z,5.77
2022-10-05T07:32:02.662Z,6.27
2022-10-05T07:38:51.155Z,6.43
2022-10-05T07:58:13.223Z,3.73
2022-10-05T08:18:01.450Z,5.80
2022-10-05T08:50:34.871Z,3.80
2022-10-05T09:04:01.998Z,6.17
2022-10-05T09:50:02.516Z,5.33
2022-10-05T10:03:23.445Z,1.20
2022-10-05T10:09:28.169Z,3.50
2022-10-05T11:01:28.929Z,3.43
2022-10-05T11:53:10.767Z,4.00
2022-10-05T12:00:30.616Z,6.57
2022-10-05T13:09:56.663Z,2.77
2022-10-05T16:19:15.721Z,24.33
2022-10-05T16:25:23.756Z,40.57
2022-10-05T16:31:44.453Z,40.50
2022-10-05T16:38:14.276Z,34.03
2022-10-05T16:44:29.994Z,137.63
2022-10-05T16:51:09.790Z,141.67
2022-10-05T16:57:22.499Z,49.53
2022-10-05T17:03:47.599Z,16.43
2022-10-05T17:10:14.185Z,42.47
2022-10-05T17:16:40.821Z,124.13
2022-10-05T17:22:52.338Z,52.77
2022-10-05T17:29:12.914Z,47.83
2022-10-05T17:35:54.459Z,29.13
2022-10-05T17:42:34.415Z,23.30
2022-10-05T17:48:54.483Z,30.97
2022-10-05T17:55:21.182Z,22.67
2022-10-05T18:01:36.327Z,63.00
2022-10-05T18:07:40.488Z,55.67
2022-10-05T18:13:50.274Z,56.07
2022-10-05T18:20:19.386Z,27.03
2022-10-05T18:26:53.643Z,40.07
2022-10-05T18:33:17.111Z,48.77
2022-10-05T18:39:32.713Z,35.93
2022-10-05T18:46:01.453Z,31.73
2022-10-05T18:52:08.226Z,50.37
2022-10-05T18:58:17.066Z,38.40
2022-10-05T19:04:22.650Z,30.70
2022-10-05T19:10:33.276Z,37.10
2022-10-05T19:16:50.171Z,42.57
2022-10-05T19:23:46.231Z,36.07
2022-10-05T19:29:53.597Z,76.50
2022-10-05T19:36:17.657Z,36.87
2022-10-05T19:42:49.758Z,35.30
2022-10-05T19:48:54.023Z,16.30
2022-10-05T19:55:25.107Z,21.33
2022-10-05T20:01:35.499Z,38.77
2022-10-05T20:07:37.890Z,13.27
2022-10-05T20:14:01.515Z,14.93
2022-10-05T20:20:51.380Z,12.17
2022-10-05T20:27:06.226Z,14.50
2022-10-05T20:33:14.731Z,17.90
2022-10-05T20:39:17.364Z,18.87
2022-10-05T20:45:19.099Z,19.53
2022-10-05T20:51:21.118Z,20.17
2022-10-05T20:57:24.086Z,18.67
2022-10-05T21:03:25.842Z,13.67
2022-10-05T21:09:27.562Z,15.83
2022-10-05T21:15:29.364Z,23.17
2022-10-05T21:21:31.108Z,20.17
2022-10-05T21:27:32.808Z,21.30
2022-10-05T21:33:35.003Z,9.87
2022-10-05T21:39:36.856Z,10.27
2022-10-05T21:45:38.674Z,10.10
2022-10-05T21:51:40.729Z,8.63
2022-10-05T21:57:51.069Z,5.33
2022-10-05T22:03:52.900Z,9.10
2022-10-05T22:09:55.130Z,8.23
2022-10-05T22:15:57.218Z,5.27
2022-10-05T22:21:58.927Z,6.20
2022-10-05T22:28:02.235Z,7.80
2022-10-05T22:34:04.478Z,7.27
2022-10-05T22:40:07.986Z,6.03
2022-10-05T22:46:13.690Z,10.83
2022-10-05T22:52:15.723Z,5.93
2022-10-05T22:58:17.495Z,8.87
2022-10-05T23:04:19.356Z,13.53
2022-10-05T23:10:21.135Z,11.47
2022-10-05T23:16:28.067Z,26.53
2022-10-05T23:22:30.209Z,7.93
2022-10-05T23:28:32.548Z,7.83
2022-10-05T23:34:34.756Z,15.63
2022-10-05T23:40:36.524Z,9.60
2022-10-05T23:46:38.259Z,8.17
2022-10-05T23:52:40.005Z,9.33
2022-10-05T23:58:41.779Z,12.47
